Time;durP1;ratioP1;P1;durP2;ratioP2;P2;SDS_P1;SDS_P2;PMS_P1;PMS_P2;Temp;Humidity;BMP_temperature;BMP_pressure;BME280_temperature;BME280_humidity;BME280_pressure;Samples;Min_cycle;Max_cycle;Signal;HPM_P1;HPM_P2
2023/09/15 00:01:34;;;;;;;1999.90;999.90;;;10.60;99.90;;;;;;5049836;28;20045;-66
2023/09/15 00:04:03;;;;;;;1999.90;999.90;;;10.60;99.90;;;;;;5057232;28;20064;-67
2023/09/15 00:06:29;;;;;;;1999.90;999.90;;;10.60;99.90;;;;;;5058899;28;20080;-66
2023/09/15 00:08:54;;;;;;;1999.90;999.90;;;10.60;99.90;;;;;;5053029;28;20519;-66
2023/09/15 00:11:20;;;;;;;1999.90;999.90;;;10.60;99.90;;;;;;5053197;28;20562;-66
2023/09/15 00:13:46;;;;;;;1999.90;999.90;;;10.50;99.90;;;;;;5067412;28;20066;-66
2023/09/15 00:16:12;;;;;;;1999.90;999.90;;;10.50;99.90;;;;;;5049536;28;20052;-66
2023/09/15 00:18:37;;;;;;;1999.90;999.90;;;10.50;99.90;;;;;;5059833;28;20040;-66
2023/09/15 00:21:05;;;;;;;1999.90;999.90;;;10.40;99.90;;;;;;5059450;28;20142;-66
2023/09/15 00:23:31;;;;;;;1999.90;999.90;;;10.40;99.90;;;;;;5038182;28;20055;-66
2023/09/15 00:25:59;;;;;;;1999.90;999.90;;;10.40;99.90;;;;;;5032611;28;20053;-67
2023/09/15 00:28:25;;;;;;;1999.90;999.90;;;10.40;99.90;;;;;;5052080;28;20044;-66
2023/09/15 00:30:51;;;;;;;1999.90;999.90;;;10.40;99.90;;;;;;5049633;28;20451;-66
2023/09/15 00:33:17;;;;;;;1999.90;999.90;;;10.40;99.90;;;;;;5047235;28;20048;-66
2023/09/15 00:35:42;;;;;;;1999.90;999.90;;;10.30;99.90;;;;;;5046720;28;20118;-66
2023/09/15 00:38:09;;;;;;;1999.90;999.90;;;10.20;99.90;;;;;;5053660;28;20446;-66
2023/09/15 00:40:35;;;;;;;1999.90;999.90;;;10.30;99.90;;;;;;5051541;28;20048;-66
2023/09/15 00:43:00;;;;;;;1999.90;999.90;;;10.20;99.90;;;;;;5055042;28;20044;-66
2023/09/15 00:45:26;;;;;;;1999.90;999.90;;;10.20;99.90;;;;;;5030816;28;20048;-66
2023/09/15 00:47:55;;;;;;;1999.90;999.90;;;10.20;99.90;;;;;;5062185;28;20087;-66
2023/09/15 00:50:28;;;;;;;1999.90;999.90;;;10.20;99.90;;;;;;5058539;28;20056;-66
2023/09/15 00:53:00;;;;;;;1999.90;999.90;;;10.10;99.90;;;;;;5050017;28;20497;-66
2023/09/15 00:55:27;;;;;;;1999.90;999.90;;;10.10;99.90;;;;;;5060577;28;20059;-66
2023/09/15 00:57:54;;;;;;;1999.90;999.90;;;10.10;99.90;;;;;;5050106;28;20484;-66
2023/09/15 01:00:20;;;;;;;1999.90;999.90;;;10.00;99.90;;;;;;5048034;28;20653;-66
2023/09/15 01:02:47;;;;;;;1999.90;999.90;;;10.00;99.90;;;;;;5050732;28;20489;-66
2023/09/15 01:05:20;;;;;;;1999.90;999.90;;;10.00;99.90;;;;;;5050905;28;20131;-66
2023/09/15 01:07:47;;;;;;;1999.90;999.90;;;10.00;99.90;;;;;;5018517;28;20119;-66
2023/09/15 01:10:14;;;;;;;1999.90;999.90;;;10.00;99.90;;;;;;5032818;28;20033;-66
2023/09/15 01:12:41;;;;;;;1999.90;999.90;;;10.00;99.90;;;;;;5041804;28;20044;-66
2023/09/15 01:15:07;;;;;;;1999.90;999.90;;;9.90;99.90;;;;;;5055263;28;20076;-66
2023/09/15 01:17:45;;;;;;;1999.90;999.90;;;9.90;99.90;;;;;;5063383;28;20145;-66
2023/09/15 01:20:21;;;;;;;1999.90;999.90;;;9.90;99.90;;;;;;5041383;28;20557;-66
2023/09/15 01:22:53;;;;;;;1999.90;999.90;;;9.90;99.90;;;;;;5052018;28;20115;-66
2023/09/15 01:25:39;;;;;;;1999.90;999.90;;;9.90;99.90;;;;;;5033028;28;20037;-66
2023/09/15 01:28:32;;;;;;;1999.90;999.90;;;9.80;99.90;;;;;;5048075;28;20640;-66
2023/09/15 01:31:00;;;;;;;1999.90;999.90;;;9.80;99.90;;;;;;5045561;28;20073;-66
2023/09/15 01:33:26;;;;;;;1999.90;999.90;;;9.80;99.90;;;;;;5046170;28;20045;-66
2023/09/15 01:35:52;;;;;;;1999.90;999.90;;;9.80;99.90;;;;;;5052364;28;20055;-66
2023/09/15 01:38:18;;;;;;;1999.90;999.90;;;9.80;99.90;;;;;;5056319;28;20048;-66
2023/09/15 01:40:43;;;;;;;1999.90;999.90;;;9.80;99.90;;;;;;5049685;28;20468;-66
2023/09/15 01:43:10;;;;;;;1999.90;999.90;;;9.70;99.90;;;;;;5052345;28;20178;-66
2023/09/15 01:45:35;;;;;;;1999.90;999.90;;;9.70;99.90;;;;;;5047209;28;20074;-66
2023/09/15 01:48:02;;;;;;;1999.90;999.90;;;9.70;99.90;;;;;;5057690;28;20161;-66
2023/09/15 01:50:29;;;;;;;1999.90;999.90;;;9.70;99.90;;;;;;5054584;28;20037;-66
2023/09/15 01:52:55;;;;;;;1999.90;999.90;;;9.70;99.90;;;;;;5058820;28;20386;-66
2023/09/15 01:55:22;;;;;;;1999.90;999.90;;;9.70;99.90;;;;;;5042914;28;20399;-66
2023/09/15 01:57:48;;;;;;;1999.90;999.90;;;9.70;99.90;;;;;;5041223;28;20535;-66
2023/09/15 02:00:14;;;;;;;1999.90;999.90;;;9.70;99.90;;;;;;5046261;28;20053;-66
2023/09/15 02:02:39;;;;;;;1999.90;999.90;;;9.70;99.90;;;;;;5046369;28;20505;-66
2023/09/15 02:05:05;;;;;;;1999.90;999.90;;;9.60;99.90;;;;;;5040632;28;20068;-67
2023/09/15 02:07:31;;;;;;;1999.90;999.90;;;9.60;99.90;;;;;;5052279;28;20040;-66
2023/09/15 02:09:56;;;;;;;1999.90;999.90;;;9.60;99.90;;;;;;5034299;28;20390;-66
2023/09/15 02:12:22;;;;;;;1999.90;999.90;;;9.50;99.90;;;;;;5057281;28;20076;-66
2023/09/15 02:14:47;;;;;;;1999.90;999.90;;;9.50;99.90;;;;;;5046305;28;20500;-66
2023/09/15 02:17:15;;;;;;;1999.90;999.90;;;9.50;99.90;;;;;;5037001;28;20149;-66
2023/09/15 02:19:44;;;;;;;1999.90;999.90;;;9.50;99.90;;;;;;5051512;28;20080;-66
2023/09/15 02:22:10;;;;;;;1999.90;999.90;;;9.50;99.90;;;;;;5033637;28;20445;-66
2023/09/15 02:24:35;;;;;;;1999.90;999.90;;;9.50;99.90;;;;;;5044099;28;20040;-66
2023/09/15 02:27:01;;;;;;;1999.90;999.90;;;9.50;99.90;;;;;;5049765;28;20033;-66
2023/09/15 02:29:27;;;;;;;1999.90;999.90;;;9.50;99.90;;;;;;5045739;28;20429;-66
2023/09/15 02:31:52;;;;;;;1999.90;999.90;;;9.50;99.90;;;;;;5052942;28;20036;-66
2023/09/15 02:34:18;;;;;;;1999.90;999.90;;;9.40;99.90;;;;;;5053108;28;20524;-66
2023/09/15 02:36:44;;;;;;;1999.90;999.90;;;9.50;99.90;;;;;;5048640;28;20040;-66
2023/09/15 02:39:09;;;;;;;1999.90;999.90;;;9.40;99.90;;;;;;5053449;28;20552;-66
2023/09/15 02:41:35;;;;;;;1999.90;999.90;;;9.40;99.90;;;;;;5053370;28;20052;-66
2023/09/15 02:44:01;;;;;;;1999.90;999.90;;;9.40;99.90;;;;;;5056171;28;20374;-66
2023/09/15 02:46:26;;;;;;;1999.90;999.90;;;9.40;99.90;;;;;;5049612;28;20041;-66
2023/09/15 02:48:52;;;;;;;1999.90;999.90;;;9.30;99.90;;;;;;5048896;28;20037;-66
2023/09/15 02:51:18;;;;;;;1999.90;999.90;;;9.30;99.90;;;;;;5045476;28;20036;-66
2023/09/15 02:53:43;;;;;;;1999.90;999.90;;;9.30;99.90;;;;;;5055446;28;20045;-66
2023/09/15 02:56:09;;;;;;;1999.90;999.90;;;9.30;99.90;;;;;;5048536;28;20122;-66
2023/09/15 02:58:35;;;;;;;1999.90;999.90;;;9.20;99.90;;;;;;5048512;28;20065;-65
2023/09/15 03:01:16;;;;;;;1999.90;999.90;;;9.20;99.90;;;;;;5055709;28;20496;-66
2023/09/15 03:03:42;;;;;;;1999.90;999.90;;;9.20;99.90;;;;;;5048421;28;20068;-66
2023/09/15 03:06:08;;;;;;;1999.90;999.90;;;9.20;99.90;;;;;;5060733;28;20138;-66
2023/09/15 03:08:35;;;;;;;1999.90;999.90;;;9.20;99.90;;;;;;5053263;28;20044;-65
2023/09/15 03:11:01;;;;;;;1999.90;999.90;;;9.10;99.90;;;;;;5068711;28;20090;-65
2023/09/15 03:13:27;;;;;;;1999.90;999.90;;;9.10;99.90;;;;;;5055470;28;20033;-65
2023/09/15 03:15:53;;;;;;;1999.90;999.90;;;9.10;99.90;;;;;;5056060;28;20036;-65
2023/09/15 03:18:18;;;;;;;1999.90;999.90;;;9.10;99.90;;;;;;5035013;28;20106;-65
2023/09/15 03:20:44;;;;;;;1999.90;999.90;;;9.10;99.90;;;;;;5057582;28;20043;-65
2023/09/15 03:23:09;;;;;;;1999.90;999.90;;;9.10;99.90;;;;;;5047358;28;20083;-65
2023/09/15 03:25:35;;;;;;;1999.90;999.90;;;9.10;99.90;;;;;;5047856;28;20033;-65
2023/09/15 03:28:01;;;;;;;1999.90;999.90;;;9.10;99.90;;;;;;5044786;28;20052;-65
2023/09/15 03:30:27;;;;;;;1999.90;999.90;;;9.10;99.90;;;;;;5044392;28;20048;-65
2023/09/15 03:32:53;;;;;;;1999.90;999.90;;;9.10;99.90;;;;;;5060368;28;20433;-65
2023/09/15 03:35:20;;;;;;;1999.90;999.90;;;9.10;99.90;;;;;;5036453;28;20041;-65
2023/09/15 03:37:45;;;;;;;1999.90;999.90;;;9.10;99.90;;;;;;5051023;28;20049;-65
2023/09/15 03:40:11;;;;;;;1999.90;999.90;;;9.10;99.90;;;;;;5032637;28;20041;-65
2023/09/15 03:42:38;;;;;;;1999.90;999.90;;;9.10;99.90;;;;;;5052066;28;20040;-66
2023/09/15 03:45:07;;;;;;;1999.90;999.90;;;9.10;99.90;;;;;;5049149;28;20048;-65
2023/09/15 03:47:33;;;;;;;1999.90;999.90;;;9.10;99.90;;;;;;5070182;28;20282;-65
2023/09/15 03:49:59;;;;;;;1999.90;999.90;;;9.10;99.90;;;;;;5048872;28;20184;-65
2023/09/15 03:52:24;;;;;;;1999.90;999.90;;;9.10;99.90;;;;;;5052023;28;20128;-65
2023/09/15 03:54:50;;;;;;;1999.90;999.90;;;9.10;99.90;;;;;;5055662;28;20040;-65
2023/09/15 03:57:15;;;;;;;1999.90;999.90;;;9.10;99.90;;;;;;5035597;28;20053;-65
2023/09/15 03:59:41;;;;;;;1999.90;999.90;;;9.10;99.90;;;;;;5039159;28;20044;-65
2023/09/15 04:02:07;;;;;;;1999.90;999.90;;;9.10;99.90;;;;;;5054134;28;20404;-65
2023/09/15 04:04:32;;;;;;;1999.90;999.90;;;9.10;99.90;;;;;;5057711;28;20117;-65
2023/09/15 04:06:58;;;;;;;1999.90;999.90;;;9.10;99.90;;;;;;5055493;28;20458;-65
2023/09/15 04:09:26;;;;;;;1999.90;999.90;;;9.00;99.90;;;;;;5061299;28;20057;-66
2023/09/15 04:11:54;;;;;;;1999.90;999.90;;;9.00;99.90;;;;;;5050381;28;20045;-65
2023/09/15 04:14:19;;;;;;;1999.90;999.90;;;9.00;99.90;;;;;;5048890;28;20052;-65
2023/09/15 04:16:45;;;;;;;1999.90;999.90;;;9.00;99.90;;;;;;5035006;28;20489;-65
2023/09/15 04:19:10;;;;;;;1999.90;999.90;;;9.00;99.90;;;;;;5052674;28;20056;-65
2023/09/15 04:21:38;;;;;;;1999.90;999.90;;;8.90;99.90;;;;;;5052281;28;20056;-65
2023/09/15 04:24:05;;;;;;;1999.90;999.90;;;8.90;99.90;;;;;;5050689;28;20111;-65
2023/09/15 04:26:31;;;;;;;1999.90;999.90;;;8.90;99.90;;;;;;5047896;28;20095;-65
2023/09/15 04:28:58;;;;;;;1999.90;999.90;;;8.90;99.90;;;;;;5049569;28;20061;-65
2023/09/15 04:31:23;;;;;;;1999.90;999.90;;;8.80;99.90;;;;;;5053441;28;20412;-65
2023/09/15 04:33:49;;;;;;;1999.90;999.90;;;8.80;99.90;;;;;;5058328;28;20143;-65
2023/09/15 04:36:16;;;;;;;1999.90;999.90;;;8.80;99.90;;;;;;5057772;28;20374;-66
2023/09/15 04:38:42;;;;;;;1999.90;999.90;;;8.80;99.90;;;;;;5051955;28;20048;-66
2023/09/15 04:41:08;;;;;;;1999.90;999.90;;;8.80;99.90;;;;;;5050634;28;20037;-65
2023/09/15 04:43:33;;;;;;;1999.90;999.90;;;8.80;99.90;;;;;;5055769;28;20046;-65
2023/09/15 04:45:59;;;;;;;1999.90;999.90;;;8.80;99.90;;;;;;5034196;28;20041;-65
2023/09/15 04:48:25;;;;;;;1999.90;999.90;;;8.90;99.90;;;;;;5045950;28;20044;-65
2023/09/15 04:50:51;;;;;;;1999.90;999.90;;;8.80;99.90;;;;;;5053376;28;20051;-65
2023/09/15 04:53:16;;;;;;;1999.90;999.90;;;8.80;99.90;;;;;;5052824;28;20072;-66
2023/09/15 04:55:42;;;;;;;1999.90;999.90;;;8.80;99.90;;;;;;5027011;28;20124;-65
2023/09/15 04:58:07;;;;;;;1999.90;999.90;;;8.80;99.90;;;;;;5046723;28;20048;-65
2023/09/15 05:00:34;;;;;;;1999.90;999.90;;;8.80;99.90;;;;;;5039196;28;20045;-65
2023/09/15 05:03:03;;;;;;;1999.90;999.90;;;8.70;99.90;;;;;;5034264;28;20215;-65
2023/09/15 05:05:29;;;;;;;1999.90;999.90;;;8.70;99.90;;;;;;5027064;28;20057;-66
2023/09/15 05:07:56;;;;;;;1999.90;999.90;;;8.70;99.90;;;;;;5033425;28;20082;-65
2023/09/15 05:10:22;;;;;;;1999.90;999.90;;;8.70;99.90;;;;;;5050712;28;20049;-65
2023/09/15 05:12:48;;;;;;;1999.90;999.90;;;8.60;99.90;;;;;;5045025;28;20052;-66
2023/09/15 05:15:13;;;;;;;1999.90;999.90;;;8.60;99.90;;;;;;5049285;28;20048;-65
2023/09/15 05:17:40;;;;;;;1999.90;999.90;;;8.60;99.90;;;;;;5039457;28;20045;-65
2023/09/15 05:20:06;;;;;;;1999.90;999.90;;;8.60;99.90;;;;;;5062172;28;20118;-65
2023/09/15 05:22:31;;;;;;;1999.90;999.90;;;8.60;99.90;;;;;;5043549;28;20076;-65
2023/09/15 05:24:58;;;;;;;1999.90;999.90;;;8.60;99.90;;;;;;5050150;28;20041;-66
2023/09/15 05:27:23;;;;;;;1999.90;999.90;;;8.60;99.90;;;;;;5034236;28;20495;-66
2023/09/15 05:29:50;;;;;;;1999.90;999.90;;;8.60;99.90;;;;;;5048202;28;20113;-65
2023/09/15 05:32:16;;;;;;;1999.90;999.90;;;8.70;99.90;;;;;;5050453;28;20420;-65
2023/09/15 05:34:42;;;;;;;1999.90;999.90;;;8.70;99.90;;;;;;5036886;28;20060;-65
2023/09/15 05:37:07;;;;;;;1999.90;999.90;;;8.70;99.90;;;;;;5054826;28;20044;-65
2023/09/15 05:39:33;;;;;;;1999.90;999.90;;;8.80;99.90;;;;;;5047377;28;20085;-65
2023/09/15 05:42:00;;;;;;;1999.90;999.90;;;8.80;99.90;;;;;;5045714;28;20398;-65
2023/09/15 05:44:26;;;;;;;1999.90;999.90;;;8.80;99.90;;;;;;5052439;28;20041;-66
2023/09/15 05:46:52;;;;;;;1999.90;999.90;;;8.80;99.90;;;;;;5049166;28;20394;-66
2023/09/15 05:49:18;;;;;;;1999.90;999.90;;;8.90;99.90;;;;;;5045910;28;20041;-66
2023/09/15 05:51:43;;;;;;;1999.90;999.90;;;9.00;99.90;;;;;;5053930;28;20462;-66
2023/09/15 05:54:09;;;;;;;1999.90;999.90;;;9.00;99.90;;;;;;5054910;28;20045;-66
2023/09/15 05:56:35;;;;;;;1999.90;999.90;;;9.10;99.90;;;;;;5053434;28;20040;-65
2023/09/15 05:59:01;;;;;;;1999.90;999.90;;;9.10;99.90;;;;;;5046811;28;20044;-66
2023/09/15 06:01:26;;;;;;;1999.90;999.90;;;9.20;99.90;;;;;;5048961;28;20048;-65
2023/09/15 06:03:52;;;;;;;1999.90;999.90;;;9.30;99.90;;;;;;5049787;28;20035;-66
2023/09/15 06:06:18;;;;;;;1999.90;999.90;;;9.30;99.90;;;;;;5048027;28;20084;-66
2023/09/15 06:08:44;;;;;;;1999.90;999.90;;;9.40;99.90;;;;;;5046048;28;20583;-65
2023/09/15 06:11:10;;;;;;;1999.90;999.90;;;9.50;99.90;;;;;;5050293;28;20041;-66
2023/09/15 06:13:36;;;;;;;1999.90;999.90;;;9.50;99.90;;;;;;5047308;28;20072;-65
2023/09/15 06:16:04;;;;;;;1999.90;999.90;;;9.60;99.90;;;;;;5047870;28;20481;-65
2023/09/15 06:18:30;;;;;;;1999.90;999.90;;;9.70;99.90;;;;;;5064164;28;20504;-66
2023/09/15 06:20:56;;;;;;;1999.90;999.90;;;9.70;99.90;;;;;;5041223;28;20429;-65
2023/09/15 06:23:22;;;;;;;1999.90;999.90;;;9.80;99.90;;;;;;5057653;28;20365;-65
2023/09/15 06:25:48;;;;;;;1999.90;999.90;;;9.90;99.90;;;;;;5058677;28;20480;-66
2023/09/15 06:28:14;;;;;;;1999.90;999.90;;;10.00;99.90;;;;;;5057624;28;20041;-66
2023/09/15 06:30:40;;;;;;;1999.90;999.90;;;10.10;99.90;;;;;;5054466;28;20048;-66
2023/09/15 06:33:05;;;;;;;1999.90;999.90;;;10.20;99.90;;;;;;5058448;28;20036;-65
2023/09/15 06:35:31;;;;;;;1999.90;999.90;;;10.30;99.90;;;;;;5065687;28;20810;-66
2023/09/15 06:37:57;;;;;;;1999.90;999.90;;;10.40;99.90;;;;;;5065939;28;20048;-66
2023/09/15 06:40:23;;;;;;;1999.90;999.90;;;10.50;99.90;;;;;;5052240;28;20045;-66
2023/09/15 06:42:48;;;;;;;1999.90;999.90;;;10.60;99.90;;;;;;5046275;28;20416;-66
2023/09/15 06:45:14;;;;;;;1999.90;999.90;;;10.70;99.90;;;;;;5048559;28;20041;-66
2023/09/15 06:47:40;;;;;;;1999.90;999.90;;;10.80;99.90;;;;;;5060161;28;20124;-66
2023/09/15 06:50:06;;;;;;;1999.90;999.90;;;10.90;99.90;;;;;;5045985;28;20045;-66
2023/09/15 06:52:31;;;;;;;1999.90;999.90;;;11.00;99.90;;;;;;5054726;28;20139;-66
2023/09/15 06:54:57;;;;;;;1999.90;999.90;;;11.10;99.90;;;;;;5048187;28;20568;-66
2023/09/15 06:57:23;;;;;;;1999.90;999.90;;;11.20;99.90;;;;;;5058086;28;20035;-66
2023/09/15 06:59:49;;;;;;;1999.90;999.90;;;11.30;99.90;;;;;;5058532;28;20060;-66
2023/09/15 07:02:14;;;;;;;1999.90;999.90;;;11.40;99.90;;;;;;5045993;28;20492;-66
2023/09/15 07:04:40;;;;;;;1999.90;999.90;;;11.50;99.90;;;;;;5064274;28;20045;-66
2023/09/15 07:07:05;;;;;;;1999.90;999.90;;;11.60;99.90;;;;;;5049482;28;20489;-66
2023/09/15 07:09:31;;;;;;;1999.90;999.90;;;11.70;99.90;;;;;;5040941;28;20044;-66
2023/09/15 07:11:57;;;;;;;1999.90;999.90;;;11.80;99.90;;;;;;5051889;28;20040;-66
2023/09/15 07:14:22;;;;;;;1999.90;999.90;;;11.90;99.90;;;;;;5029556;28;20041;-66
2023/09/15 07:16:48;;;;;;;1999.90;999.90;;;12.00;99.90;;;;;;5039119;28;20037;-68
2023/09/15 07:19:14;;;;;;;1999.90;999.90;;;12.10;99.90;;;;;;5055756;28;20053;-66
2023/09/15 07:21:41;;;;;;;1999.90;999.90;;;12.20;99.90;;;;;;5041475;28;20147;-66
2023/09/15 07:24:11;;;;;;;1999.90;999.90;;;12.40;99.90;;;;;;5064815;28;20045;-66
2023/09/15 07:26:37;;;;;;;1999.90;999.90;;;12.50;99.90;;;;;;5058875;28;20500;-66
2023/09/15 07:29:03;;;;;;;1999.90;999.90;;;12.70;99.90;;;;;;5069826;28;20068;-66
2023/09/15 07:31:34;;;;;;;1999.90;999.90;;;12.80;99.90;;;;;;5066395;28;20048;-66
2023/09/15 07:34:00;;;;;;;1999.90;999.90;;;13.00;99.90;;;;;;5056533;28;20040;-66
2023/09/15 07:36:25;;;;;;;1999.90;999.90;;;13.00;99.90;;;;;;5035476;28;20493;-64
2023/09/15 07:38:52;;;;;;;1999.90;999.90;;;13.10;99.90;;;;;;5063513;28;20127;-66
2023/09/15 07:41:18;;;;;;;1999.90;999.90;;;13.20;99.90;;;;;;5056536;28;20083;-66
2023/09/15 07:43:44;;;;;;;1999.90;999.90;;;13.30;99.90;;;;;;5039504;28;20473;-66
2023/09/15 07:46:09;;;;;;;1999.90;999.90;;;13.40;99.90;;;;;;5051579;28;20561;-66
2023/09/15 07:48:35;;;;;;;1999.90;999.90;;;13.50;99.90;;;;;;5054253;28;20037;-66
2023/09/15 07:51:00;;;;;;;1999.90;999.90;;;13.70;99.90;;;;;;5065732;28;20123;-66
2023/09/15 07:53:26;;;;;;;1999.90;999.90;;;13.80;99.90;;;;;;5056230;28;20044;-66
2023/09/15 07:55:52;;;;;;;1999.90;999.90;;;13.80;99.90;;;;;;5049149;28;20504;-66
2023/09/15 07:58:17;;;;;;;1999.90;999.90;;;13.90;99.90;;;;;;5053775;28;20479;-66
2023/09/15 08:00:43;;;;;;;1999.90;999.90;;;14.10;99.90;;;;;;5059712;28;20032;-67
2023/09/15 08:03:09;;;;;;;1999.90;999.90;;;14.20;99.90;;;;;;5068280;28;20044;-66
2023/09/15 08:05:34;;;;;;;1999.90;999.90;;;14.30;99.90;;;;;;5058356;28;20107;-66
2023/09/15 08:08:00;;;;;;;1999.90;999.90;;;14.40;99.90;;;;;;5061523;28;20048;-67
2023/09/15 08:10:28;;;;;;;1999.90;999.90;;;14.50;99.90;;;;;;5061083;28;20044;-67
2023/09/15 08:12:54;;;;;;;1999.90;999.90;;;14.80;99.90;;;;;;5057066;28;20041;-66
2023/09/15 08:15:20;;;;;;;1999.90;999.90;;;15.00;99.90;;;;;;5058318;28;20459;-66
2023/09/15 08:17:46;;;;;;;1999.90;999.90;;;15.00;99.90;;;;;;5048687;28;20041;-66
2023/09/15 08:20:13;;;;;;;1999.90;999.90;;;15.10;99.90;;;;;;5062157;28;20039;-66
2023/09/15 08:22:39;;;;;;;1999.90;999.90;;;15.20;99.90;;;;;;5061917;28;20049;-67
2023/09/15 08:25:06;;;;;;;1999.90;999.90;;;15.30;99.90;;;;;;5068047;28;20119;-66
2023/09/15 08:27:32;;;;;;;1999.90;999.90;;;15.40;99.90;;;;;;5060269;28;20033;-66
2023/09/15 08:29:58;;;;;;;1999.90;999.90;;;15.50;99.90;;;;;;5049206;28;20463;-66
2023/09/15 08:32:24;;;;;;;1999.90;999.90;;;15.60;99.90;;;;;;5046888;28;20079;-67
2023/09/15 08:34:49;;;;;;;1999.90;999.90;;;15.90;99.90;;;;;;5045204;28;20048;-67
2023/09/15 08:37:15;;;;;;;1999.90;999.90;;;16.20;99.90;;;;;;5050872;28;20084;-66
2023/09/15 08:39:41;;;;;;;1999.90;999.90;;;16.40;99.90;;;;;;5065431;28;20048;-66
2023/09/15 08:42:15;;;;;;;1999.90;999.90;;;16.60;99.90;;;;;;5051010;28;20047;-66
2023/09/15 08:44:43;;;;;;;1999.90;999.90;;;16.90;99.90;;;;;;5037448;28;20425;-66
2023/09/15 08:47:09;;;;;;;1999.90;999.90;;;17.50;99.90;;;;;;5046984;28;20041;-66
2023/09/15 08:49:35;;;;;;;1999.90;999.90;;;18.20;99.90;;;;;;5046678;28;20095;-67
2023/09/15 08:52:03;;;;;;;1999.90;999.90;;;18.60;99.90;;;;;;5048407;28;20036;-67
2023/09/15 08:54:30;;;;;;;64.18;61.03;;;19.00;99.90;;;;;;5064894;28;20102;-67
2023/09/15 08:56:56;;;;;;;104.30;99.63;;;19.60;99.90;;;;;;5029376;28;20079;-67
2023/09/15 08:59:23;;;;;;;181.82;174.02;;;20.20;99.90;;;;;;5052539;28;20083;-67
2023/09/15 09:01:49;;;;;;;257.23;245.77;;;20.70;99.90;;;;;;5053875;28;20123;-67
2023/09/15 09:04:14;;;;;;;350.30;333.92;;;21.00;99.90;;;;;;5058710;28;20127;-67
2023/09/15 09:06:41;;;;;;;361.83;344.48;;;21.20;99.90;;;;;;5047746;28;20114;-67
2023/09/15 09:09:07;;;;;;;356.55;339.83;;;21.30;99.90;;;;;;5033110;28;20068;-67
2023/09/15 09:11:33;;;;;;;352.90;336.52;;;21.50;99.90;;;;;;5046031;28;20049;-67
2023/09/15 09:13:59;;;;;;;300.48;287.02;;;21.60;99.90;;;;;;5051622;28;20047;-67
2023/09/15 09:16:26;;;;;;;416.10;396.00;;;21.80;99.90;;;;;;5051545;28;20116;-67
2023/09/15 09:19:00;;;;;;;405.77;386.20;;;21.80;99.90;;;;;;5047998;28;20036;-67
2023/09/15 09:21:27;;;;;;;;;;;21.90;99.90;;;;;;5042292;28;20045;-67
2023/09/15 09:23:53;;;;;;;272.75;260.17;;;22.00;99.90;;;;;;5037477;28;19920;-67
2023/09/15 09:26:18;;;;;;;339.77;323.58;;;22.00;99.90;;;;;;5043746;28;20492;-67
2023/09/15 09:28:44;;;;;;;251.73;240.40;;;22.10;99.90;;;;;;5049408;28;20041;-67
2023/09/15 09:31:10;;;;;;;379.60;361.08;;;22.00;99.90;;;;;;5060637;28;20554;-67
2023/09/15 09:33:36;;;;;;;254.50;243.40;;;22.10;99.90;;;;;;5049515;28;20729;-68
2023/09/15 09:36:16;;;;;;;323.67;309.08;;;22.00;99.90;;;;;;5057119;28;20099;-67
2023/09/15 09:38:42;;;;;;;169.85;162.35;;;21.90;99.90;;;;;;5050662;28;20056;-67
2023/09/15 09:41:12;;;;;;;170.73;163.18;;;21.90;99.90;;;;;;5048672;28;20391;-67
2023/09/15 09:43:39;;;;;;;196.10;187.73;;;21.90;99.90;;;;;;5062948;28;20402;-68
2023/09/15 09:46:06;;;;;;;144.50;138.05;;;21.90;99.90;;;;;;5038157;28;20603;-67
2023/09/15 09:48:37;;;;;;;108.50;103.72;;;22.00;99.90;;;;;;5041996;28;20045;-67
2023/09/15 09:51:03;;;;;;;89.65;85.43;;;22.10;99.90;;;;;;5050042;28;20357;-68
2023/09/15 09:53:34;;;;;;;96.32;91.90;;;22.10;99.90;;;;;;5046839;28;20124;-68
2023/09/15 09:56:04;;;;;;;94.95;90.22;;;22.20;99.90;;;;;;5043378;28;20508;-67
2023/09/15 09:58:36;;;;;;;65.45;62.13;;;22.20;99.90;;;;;;5042358;28;20364;-67
2023/09/15 10:01:06;;;;;;;130.70;124.63;;;22.20;99.90;;;;;;5051325;28;20074;-67
2023/09/15 10:03:32;;;;;;;151.82;145.18;;;22.40;99.90;;;;;;5045409;28;20135;-67
2023/09/15 10:05:58;;;;;;;106.95;102.05;;;22.40;99.90;;;;;;5047774;28;20049;-67
2023/09/15 10:08:26;;;;;;;55.42;52.72;;;22.50;99.90;;;;;;5060709;28;20075;-67
2023/09/15 10:10:53;;;;;;;79.13;75.32;;;22.60;99.90;;;;;;5045297;28;20040;-68
2023/09/15 10:13:19;;;;;;;82.03;78.03;;;22.70;99.90;;;;;;5049756;28;20091;-67
2023/09/15 10:15:46;;;;;;;84.70;80.72;;;22.70;99.90;;;;;;5060586;28;20467;-67
2023/09/15 10:18:15;;;;;;;67.50;64.15;;;22.80;99.90;;;;;;5059525;28;20455;-68
2023/09/15 10:20:49;;;;;;;70.78;67.38;;;23.00;99.90;;;;;;5040540;28;20106;-67
2023/09/15 10:23:15;;;;;;;37.70;35.65;;;23.10;99.90;;;;;;5040131;28;20072;-68
2023/09/15 10:25:41;;;;;;;47.67;45.13;;;23.20;99.90;;;;;;5042815;28;20040;-68
2023/09/15 10:28:07;;;;;;;41.80;39.53;;;23.20;99.90;;;;;;5046163;28;20045;-68
2023/09/15 10:30:37;;;;;;;49.13;46.38;;;23.10;99.90;;;;;;5055648;28;20084;-69
2023/09/15 10:33:07;;;;;;;54.38;51.70;;;23.00;99.90;;;;;;5028585;28;20075;-68
2023/09/15 10:35:33;;;;;;;41.00;38.78;;;23.00;99.90;;;;;;5041747;28;20044;-68
2023/09/15 10:38:03;;;;;;;42.72;40.47;;;23.20;99.90;;;;;;5044637;28;20048;-68
2023/09/15 10:40:46;;;;;;;31.55;29.85;;;23.20;99.90;;;;;;5062167;28;20087;-67
2023/09/15 10:43:12;;;;;;;25.55;23.85;;;23.20;99.70;;;;;;5042160;28;20041;-68
2023/09/15 10:45:38;;;;;;;39.92;37.80;;;23.20;99.90;;;;;;5040798;28;20067;-68
2023/09/15 10:48:04;;;;;;;28.13;26.33;;;23.20;99.90;;;;;;5046996;28;20440;-67
2023/09/15 10:50:35;;;;;;;28.08;26.38;;;23.30;99.90;;;;;;5047210;28;20123;-68
2023/09/15 10:53:14;;;;;;;21.42;19.92;;;23.50;99.90;;;;;;5053191;28;20435;-68
2023/09/15 10:55:40;;;;;;;21.90;20.35;;;23.60;99.60;;;;;;5039202;28;20506;-68
2023/09/15 10:58:06;;;;;;;21.00;19.70;;;23.50;99.90;;;;;;5047877;28;20058;-68
2023/09/15 11:00:33;;;;;;;20.83;19.42;;;23.50;99.90;;;;;;5038037;28;20172;-68
2023/09/15 11:02:59;;;;;;;19.77;18.33;;;23.60;99.90;;;;;;5054104;28;20040;-68
2023/09/15 11:05:28;;;;;;;21.13;19.73;;;23.80;99.90;;;;;;5051037;28;20506;-68
2023/09/15 11:07:56;;;;;;;22.63;21.27;;;23.90;99.70;;;;;;5048800;28;20094;-68
2023/09/15 11:10:29;;;;;;;21.33;19.92;;;24.10;99.90;;;;;;5051366;28;20067;-68
2023/09/15 11:13:00;;;;;;;23.05;21.42;;;24.20;99.10;;;;;;5035448;28;20093;-68
2023/09/15 11:15:27;;;;;;;22.83;21.33;;;24.10;98.80;;;;;;5028703;28;20057;-67
2023/09/15 11:17:52;;;;;;;28.75;27.05;;;24.00;98.60;;;;;;5045928;28;20090;-68
2023/09/15 11:20:18;;;;;;;26.52;24.83;;;23.90;99.90;;;;;;5053588;28;20048;-67
2023/09/15 11:22:44;;;;;;;23.73;22.23;;;24.20;99.90;;;;;;5045099;28;20044;-67
2023/09/15 11:25:10;;;;;;;24.83;23.42;;;24.40;99.60;;;;;;5049577;28;20068;-67
2023/09/15 11:27:36;;;;;;;23.40;22.10;;;24.40;99.00;;;;;;5053721;28;20114;-67
2023/09/15 11:30:03;;;;;;;20.58;19.08;;;24.50;98.90;;;;;;5050958;28;20045;-67
2023/09/15 11:32:29;;;;;;;24.98;23.27;;;24.40;98.20;;;;;;5049473;28;20048;-67
2023/09/15 11:34:54;;;;;;;21.88;20.40;;;24.10;98.30;;;;;;5067987;28;20481;-67
2023/09/15 11:37:20;;;;;;;23.13;21.63;;;23.90;98.20;;;;;;5048017;28;20457;-68
2023/09/15 11:39:50;;;;;;;21.20;19.88;;;23.70;98.10;;;;;;5033320;28;20029;-67
2023/09/15 11:42:16;;;;;;;24.13;22.63;;;23.50;97.90;;;;;;5050420;28;20060;-68
2023/09/15 11:44:43;;;;;;;26.58;25.10;;;23.60;97.60;;;;;;5052825;28;20500;-67
2023/09/15 11:47:11;;;;;;;20.67;19.38;;;23.70;98.70;;;;;;5041442;28;20489;-67
2023/09/15 11:49:37;;;;;;;37.35;35.35;;;23.80;97.50;;;;;;5051403;28;20044;-67
2023/09/15 11:52:03;;;;;;;21.08;19.60;;;23.80;98.10;;;;;;5052138;28;20316;-67
2023/09/15 11:54:30;;;;;;;44.45;42.25;;;23.90;97.70;;;;;;5045212;28;20049;-67
2023/09/15 11:56:59;;;;;;;25.15;23.52;;;23.90;98.40;;;;;;5057423;28;20424;-67
2023/09/15 11:59:25;;;;;;;28.00;26.33;;;23.80;98.10;;;;;;5054833;28;20040;-67
2023/09/15 12:01:57;;;;;;;37.85;35.92;;;23.70;98.10;;;;;;5056320;28;20049;-67
2023/09/15 12:04:24;;;;;;;27.63;26.08;;;23.90;99.10;;;;;;5052183;28;20044;-67
2023/09/15 12:06:50;;;;;;;60.80;57.90;;;24.10;98.50;;;;;;5059715;28;20063;-68